createdAt,value
2022-08-25T00:00:02.728Z,19.46
2022-08-25T00:01:02.739Z,19.39
2022-08-25T00:02:03.519Z,19.32
2022-08-25T00:03:02.681Z,19.28
2022-08-25T00:04:02.666Z,19.28
2022-08-25T00:05:02.687Z,19.26
2022-08-25T00:06:02.634Z,19.26
2022-08-25T00:07:03.439Z,19.28
2022-08-25T00:08:02.922Z,19.31
2022-08-25T00:09:02.609Z,19.29
2022-08-25T00:10:02.608Z,19.33
2022-08-25T00:11:03.414Z,19.36
2022-08-25T00:12:02.611Z,19.32
2022-08-25T00:13:02.571Z,19.22
2022-08-25T00:14:02.604Z,19.16
2022-08-25T00:15:02.573Z,19.08
2022-08-25T00:16:02.597Z,19.06
2022-08-25T00:17:02.557Z,19.07
2022-08-25T00:18:03.636Z,19.08
2022-08-25T00:19:02.474Z,19.11
2022-08-25T00:20:02.541Z,19.16
2022-08-25T00:21:02.478Z,19.18
2022-08-25T00:22:02.488Z,19.16
2022-08-25T00:23:02.447Z,19.16
2022-08-25T00:24:02.493Z,19.13
2022-08-25T00:25:02.416Z,19.08
2022-08-25T00:26:02.422Z,19.08
2022-08-25T00:27:02.406Z,19.06
2022-08-25T00:28:07.825Z,19.00
2022-08-25T00:29:02.368Z,18.92
2022-08-25T00:30:02.352Z,18.81
2022-08-25T00:31:02.437Z,18.76
2022-08-25T00:32:02.388Z,18.78
2022-08-25T00:33:02.366Z,18.80
2022-08-25T00:34:02.361Z,18.78
2022-08-25T00:35:02.306Z,18.78
2022-08-25T00:36:02.308Z,18.78
2022-08-25T00:37:02.262Z,18.82
2022-08-25T00:38:02.428Z,18.85
2022-08-25T00:39:02.288Z,18.88
2022-08-25T00:40:02.327Z,18.94
2022-08-25T00:41:02.219Z,19.00
2022-08-25T00:42:02.221Z,19.00
2022-08-25T00:43:02.266Z,19.02
2022-08-25T00:44:02.269Z,18.95
2022-08-25T00:45:02.382Z,19.02
2022-08-25T00:46:02.376Z,19.07
2022-08-25T00:47:02.194Z,19.07
2022-08-25T01:42:18.553Z,18.67
2022-08-25T01:43:19.304Z,18.70
2022-08-25T01:44:19.289Z,18.70
2022-08-25T01:45:19.384Z,18.69
2022-08-25T01:46:19.449Z,18.72
2022-08-25T01:47:19.333Z,18.75
2022-08-25T01:48:19.875Z,18.76
2022-08-25T01:49:19.251Z,18.82
2022-08-25T01:50:19.235Z,18.81
2022-08-25T01:51:19.194Z,18.78
2022-08-25T01:52:19.215Z,18.81
2022-08-25T01:53:19.217Z,18.81
2022-08-25T01:54:19.150Z,18.84
2022-08-25T01:55:19.177Z,18.85
2022-08-25T01:56:19.171Z,18.85
2022-08-25T01:57:19.135Z,18.88
2022-08-25T01:58:19.157Z,18.92
2022-08-25T01:59:24.333Z,18.95
2022-08-25T02:00:19.138Z,18.98
2022-08-25T02:01:19.204Z,19.02
2022-08-25T02:02:19.147Z,19.06
2022-08-25T02:03:19.263Z,19.07
2022-08-25T02:04:19.137Z,19.04
2022-08-25T02:05:22.892Z,19.00
2022-08-25T02:06:19.062Z,18.99
2022-08-25T02:07:19.050Z,18.98
2022-08-25T02:08:19.074Z,18.98
2022-08-25T02:09:18.986Z,18.98
2022-08-25T02:10:19.013Z,19.00
2022-08-25T02:11:19.008Z,19.04
2022-08-25T02:12:18.989Z,19.02
2022-08-25T02:13:18.967Z,18.95
2022-08-25T02:14:18.966Z,18.88
2022-08-25T02:15:18.965Z,18.84
2022-08-25T02:16:18.957Z,18.85
2022-08-25T02:17:18.924Z,18.87
2022-08-25T02:18:18.904Z,18.82
2022-08-25T02:19:18.932Z,18.81
2022-08-25T02:20:18.937Z,18.80
2022-08-25T02:21:18.837Z,18.80
2022-08-25T02:22:18.840Z,18.78
2022-08-25T02:23:18.874Z,18.75
2022-08-25T02:24:18.886Z,18.69
2022-08-25T02:25:18.780Z,18.67
2022-08-25T02:26:18.833Z,18.67
2022-08-25T02:27:18.798Z,18.67
2022-08-25T07:37:57.898Z,18.72
2022-08-25T07:38:58.581Z,18.75
2022-08-25T07:59:54.514Z,18.82
2022-08-25T08:00:55.475Z,18.84
2022-08-25T08:01:55.565Z,18.88
2022-08-25T08:02:55.630Z,18.91
2022-08-25T08:03:56.841Z,18.98
2022-08-25T08:04:55.485Z,18.98
2022-08-25T08:05:55.439Z,18.92
2022-08-25T08:06:55.403Z,18.90
2022-08-25T08:07:55.466Z,18.91
2022-08-25T08:08:58.941Z,18.91
2022-08-25T08:10:13.619Z,18.91
2022-08-25T08:11:10.682Z,18.87
2022-08-25T08:11:55.385Z,18.70
2022-08-25T08:12:55.434Z,18.65
2022-08-25T08:13:55.400Z,18.65
2022-08-25T08:14:56.155Z,18.60
2022-08-25T08:15:55.353Z,18.51
2022-08-25T08:16:55.299Z,18.41
2022-08-25T08:17:55.317Z,18.33
2022-08-25T08:18:55.402Z,18.18
2022-08-25T08:19:55.294Z,18.08
2022-08-25T08:20:55.578Z,18.03
2022-08-25T08:21:55.301Z,18.02
2022-08-25T08:22:55.259Z,18.00
2022-08-25T08:23:58.750Z,18.00
2022-08-25T08:24:56.388Z,17.99
2022-08-25T08:25:55.267Z,18.00
2022-08-25T08:26:58.982Z,17.99
2022-08-25T08:27:55.993Z,17.99
2022-08-25T08:28:55.203Z,17.99
2022-08-25T08:29:55.147Z,18.00
2022-08-25T08:30:55.203Z,18.05
2022-08-25T08:31:55.222Z,18.08
2022-08-25T08:33:11.878Z,18.07
2022-08-25T08:33:55.119Z,18.07
2022-08-25T08:34:55.154Z,18.07
2022-08-25T08:35:55.146Z,18.08
2022-08-25T08:36:55.106Z,18.12
2022-08-25T08:37:55.056Z,18.18
2022-08-25T08:38:55.094Z,18.21
2022-08-25T08:39:55.096Z,18.26
2022-08-25T08:40:55.074Z,18.32
2022-08-25T08:42:11.166Z,18.36
2022-08-25T08:42:55.039Z,18.39
2022-08-25T08:43:55.076Z,18.41
2022-08-25T08:44:57.017Z,18.33
2022-08-25T08:45:55.032Z,18.26
2022-08-25T08:46:56.661Z,18.20
2022-08-25T08:47:55.014Z,18.14
2022-08-25T08:48:54.970Z,18.05
2022-08-25T08:49:54.982Z,17.96
2022-08-25T08:50:54.983Z,17.93
2022-08-25T08:51:54.941Z,17.95
2022-08-25T08:52:54.946Z,17.96
2022-08-25T08:53:54.956Z,17.96
2022-08-25T08:54:54.901Z,17.97
2022-08-25T08:55:54.882Z,17.99
2022-08-25T08:56:54.851Z,17.99
2022-08-25T08:57:54.880Z,18.00
2022-08-25T08:58:54.847Z,17.97
2022-08-25T08:59:54.853Z,17.99
2022-08-25T09:00:54.829Z,17.97
2022-08-25T09:01:54.834Z,17.96
2022-08-25T09:02:54.871Z,17.93
2022-08-25T09:03:55.530Z,17.92
2022-08-25T09:04:54.810Z,17.92
2022-08-25T09:05:54.788Z,17.95
2022-08-25T09:06:54.761Z,17.96
2022-08-25T09:07:56.095Z,18.00
2022-08-25T09:08:54.779Z,18.03
2022-08-25T09:09:54.722Z,18.07
2022-08-25T09:10:54.781Z,18.05
2022-08-25T09:11:54.700Z,17.99
2022-08-25T09:13:54.658Z,17.86
2022-08-25T09:14:54.710Z,17.84
2022-08-25T09:15:54.908Z,17.79
2022-08-25T09:16:54.611Z,17.79
2022-08-25T09:17:55.077Z,17.81
2022-08-25T09:18:54.611Z,17.82
2022-08-25T09:19:54.576Z,17.84
2022-08-25T09:20:54.678Z,17.87
2022-08-25T09:21:54.613Z,17.90
2022-08-25T09:22:54.532Z,17.95
2022-08-25T09:23:54.566Z,17.97
2022-08-25T09:24:54.574Z,18.03
2022-08-25T09:25:54.594Z,18.05
2022-08-25T09:26:54.610Z,18.03
2022-08-25T09:27:54.531Z,17.97
2022-08-25T09:28:54.499Z,17.93
2022-08-25T09:29:54.486Z,17.89
2022-08-25T09:30:54.536Z,17.84
2022-08-25T09:31:54.544Z,17.84
2022-08-25T09:32:54.474Z,17.84
2022-08-25T09:33:54.422Z,17.87
2022-08-25T09:34:54.436Z,17.86
2022-08-25T09:35:54.437Z,17.86
2022-08-25T09:36:54.447Z,17.89
2022-08-25T09:37:54.429Z,17.90
2022-08-25T09:38:54.408Z,17.95
2022-08-25T09:39:54.406Z,17.97
2022-08-25T09:40:54.396Z,17.97
2022-08-25T09:41:54.383Z,17.97
2022-08-25T09:42:58.090Z,17.96
2022-08-25T09:43:54.306Z,17.97
2022-08-25T09:44:54.314Z,17.97
2022-08-25T09:45:54.373Z,18.03
2022-08-25T09:46:54.330Z,18.08
2022-08-25T09:47:54.305Z,18.11
2022-08-25T09:48:56.430Z,18.10
2022-08-25T09:49:54.285Z,18.14
2022-08-25T09:50:54.296Z,18.11
2022-08-25T09:51:54.253Z,18.08
2022-08-25T09:52:54.267Z,18.05
2022-08-25T09:53:54.196Z,17.99
2022-08-25T09:54:54.218Z,17.95
2022-08-25T09:55:57.818Z,17.95
2022-08-25T09:56:54.213Z,17.89
2022-08-25T09:57:54.181Z,17.87
2022-08-25T09:58:54.185Z,17.90
2022-08-25T09:59:57.556Z,17.95
2022-08-25T10:00:54.118Z,17.96
2022-08-25T10:01:54.183Z,17.96
2022-08-25T10:02:54.174Z,17.95
2022-08-25T10:03:54.153Z,17.93
2022-08-25T10:04:54.138Z,17.96
2022-08-25T10:05:56.149Z,17.93
2022-08-25T10:06:54.088Z,17.90
2022-08-25T10:07:54.076Z,17.89
2022-08-25T10:08:54.102Z,17.89
2022-08-25T10:09:54.096Z,17.89
2022-08-25T10:10:54.032Z,17.90
2022-08-25T10:11:57.633Z,17.90
2022-08-25T10:12:53.980Z,17.92
2022-08-25T10:13:54.018Z,17.90
2022-08-25T10:14:54.509Z,17.93
2022-08-25T10:15:54.015Z,17.92
2022-08-25T10:16:53.997Z,17.96
2022-08-25T10:17:53.951Z,17.97
2022-08-25T10:18:53.945Z,17.97
2022-08-25T10:19:53.991Z,17.99
2022-08-25T10:20:53.976Z,17.96
2022-08-25T10:21:53.931Z,17.95
2022-08-25T10:22:53.906Z,17.90
2022-08-25T10:23:53.882Z,17.90
2022-08-25T10:24:53.866Z,17.89
2022-08-25T10:25:59.228Z,17.87
2022-08-25T10:26:53.896Z,17.86
2022-08-25T10:27:53.811Z,17.86
2022-08-25T10:28:53.812Z,17.89
2022-08-25T10:29:53.840Z,17.90
2022-08-25T10:30:53.818Z,17.95
2022-08-25T10:31:53.840Z,17.95
2022-08-25T10:32:53.823Z,17.95
2022-08-25T10:33:53.773Z,17.96
2022-08-25T10:34:53.779Z,17.95
2022-08-25T10:35:53.769Z,17.97
2022-08-25T10:36:53.788Z,17.99
2022-08-25T10:37:53.737Z,18.00
2022-08-25T10:38:53.737Z,18.02
2022-08-25T10:39:55.326Z,18.02
2022-08-25T10:40:53.730Z,17.99
2022-08-25T10:41:53.695Z,18.00
2022-08-25T10:42:53.653Z,18.00
2022-08-25T10:43:53.669Z,18.03
2022-08-25T10:44:53.675Z,18.02
2022-08-25T10:45:53.697Z,17.99
2022-08-25T10:46:53.635Z,18.00
2022-08-25T10:47:53.652Z,18.03
2022-08-25T11:03:07.950Z,18.12
2022-08-25T11:03:46.749Z,18.17
2022-08-25T11:06:41.426Z,18.33
2022-08-25T11:07:31.543Z,18.41
2022-08-25T11:08:34.965Z,18.45
2022-08-25T11:09:31.489Z,18.52
2022-08-25T11:10:31.506Z,18.58
2022-08-25T11:11:31.469Z,18.62
2022-08-25T11:12:32.389Z,18.62
2022-08-25T11:41:23.222Z,18.50
2022-08-25T11:42:24.179Z,18.51
2022-08-25T11:43:24.489Z,18.54
2022-08-25T11:44:24.187Z,18.60
2022-08-25T14:15:43.511Z,22.33
2022-08-25T14:16:44.493Z,22.40
2022-08-25T14:17:44.306Z,22.43
2022-08-25T14:18:44.356Z,22.47
2022-08-25T14:19:44.304Z,22.52
2022-08-25T14:20:44.309Z,22.55
2022-08-25T14:21:44.307Z,22.58
2022-08-25T14:22:44.339Z,22.65
2022-08-25T14:23:44.305Z,22.40
2022-08-25T14:24:44.279Z,22.22
2022-08-25T14:25:44.314Z,22.15
2022-08-25T14:26:54.278Z,22.22
2022-08-25T14:28:03.528Z,22.35
2022-08-25T14:28:44.215Z,22.40
2022-08-25T14:29:44.245Z,22.49
2022-08-25T14:30:46.142Z,22.60
2022-08-25T14:31:44.210Z,22.64
2022-08-25T14:32:44.176Z,22.70
2022-08-25T14:33:44.158Z,22.73
2022-08-25T14:34:44.188Z,22.76
2022-08-25T14:35:44.142Z,22.79
2022-08-25T14:36:44.841Z,22.67
2022-08-25T14:37:44.159Z,22.61
2022-08-25T14:38:44.268Z,22.72
2022-08-25T14:39:44.194Z,22.83
2022-08-25T14:40:44.171Z,22.95
2022-08-25T14:41:46.361Z,23.07
2022-08-25T14:42:44.071Z,23.19
2022-08-25T14:43:44.067Z,23.36
2022-08-25T14:44:44.037Z,23.51
2022-08-25T14:45:44.071Z,23.69
2022-08-25T14:46:43.997Z,23.85
2022-08-25T14:47:44.017Z,23.84
2022-08-25T14:48:44.005Z,23.70
2022-08-25T14:49:43.987Z,23.63
2022-08-25T14:50:43.975Z,23.65
2022-08-25T14:51:43.934Z,23.57
2022-08-25T14:52:43.918Z,23.46
2022-08-25T14:53:43.923Z,23.40
2022-08-25T14:54:43.913Z,23.35
2022-08-25T14:55:43.914Z,23.33
2022-08-25T14:56:43.931Z,23.23
2022-08-25T14:57:43.888Z,23.17
2022-08-25T14:58:47.311Z,23.16
2022-08-25T14:59:43.845Z,23.17
2022-08-25T15:00:43.872Z,23.33
2022-08-25T15:01:43.873Z,23.50
2022-08-25T15:02:43.859Z,23.66
2022-08-25T15:03:43.901Z,23.84
2022-08-25T15:04:49.181Z,24.02
2022-08-25T15:05:43.802Z,24.12
2022-08-25T15:06:43.846Z,24.21
2022-08-25T15:07:43.794Z,24.24
2022-08-25T15:08:43.809Z,24.27
2022-08-25T15:09:43.781Z,24.32
2022-08-25T15:10:43.753Z,24.40
2022-08-25T15:11:43.704Z,24.30
2022-08-25T15:12:47.694Z,24.28
2022-08-25T15:13:47.709Z,24.28
2022-08-25T15:14:43.736Z,24.24
2022-08-25T15:15:52.728Z,24.15
2022-08-25T15:16:43.723Z,24.06
2022-08-25T15:17:49.473Z,23.95
2022-08-25T15:18:46.463Z,23.94
2022-08-25T15:19:43.716Z,24.00
2022-08-25T15:20:43.808Z,24.09
2022-08-25T15:21:44.236Z,24.20
2022-08-25T15:22:45.468Z,24.32
2022-08-25T15:23:44.590Z,24.40
2022-08-25T15:24:45.756Z,24.45
2022-08-25T15:25:43.573Z,24.52
2022-08-25T15:26:43.641Z,24.58
2022-08-25T15:27:43.582Z,24.57
2022-08-25T15:28:44.250Z,24.58
2022-08-25T15:29:43.528Z,24.67
2022-08-25T15:30:45.150Z,24.65
2022-08-25T15:31:43.648Z,24.55
2022-08-25T15:32:43.531Z,24.49
2022-08-25T15:33:43.542Z,24.55
2022-08-25T15:34:42.503Z,24.62
2022-08-25T15:35:43.567Z,24.53
2022-08-25T15:36:43.453Z,24.43
2022-08-25T15:37:44.475Z,24.43
2022-08-25T15:38:43.656Z,24.53
2022-08-25T15:39:43.448Z,24.65
2022-08-25T15:40:43.445Z,24.77
2022-08-25T15:41:44.036Z,24.83
2022-08-25T15:42:45.959Z,24.91
2022-08-25T15:43:43.374Z,24.98
2022-08-25T15:44:43.465Z,25.09
2022-08-25T15:45:43.431Z,25.23
2022-08-25T15:46:46.926Z,25.28
2022-08-25T15:47:43.411Z,25.32
2022-08-25T15:48:43.399Z,25.36
2022-08-25T15:49:43.284Z,25.39
2022-08-25T15:50:45.233Z,25.39
2022-08-25T15:51:45.700Z,25.43
2022-08-25T15:53:41.514Z,25.25
2022-08-25T15:54:42.517Z,25.09
2022-08-25T15:55:42.531Z,25.20
2022-08-25T15:56:42.514Z,25.32
2022-08-25T15:57:42.467Z,25.45
2022-08-25T15:58:45.976Z,25.51
2022-08-25T15:59:43.176Z,25.61
2022-08-25T16:00:43.072Z,25.69
2022-08-25T16:01:42.534Z,25.69
2022-08-25T16:02:42.454Z,25.73
2022-08-25T16:03:42.392Z,25.82
2022-08-25T16:04:42.354Z,25.87
2022-08-25T16:05:48.095Z,25.94
2022-08-25T16:06:42.339Z,25.97
2022-08-25T16:07:42.349Z,26.06
2022-08-25T16:08:42.604Z,25.92
2022-08-25T16:09:42.963Z,25.87
2022-08-25T16:10:42.330Z,25.92
2022-08-25T16:11:42.320Z,26.09
2022-08-25T16:12:42.595Z,26.12
2022-08-25T16:13:42.266Z,25.98
2022-08-25T16:14:42.318Z,25.87
2022-08-25T16:15:42.218Z,25.73
2022-08-25T16:16:42.358Z,25.65
2022-08-25T16:17:43.664Z,25.67
2022-08-25T16:18:42.180Z,25.72
2022-08-25T16:19:42.205Z,25.75
2022-08-25T16:20:42.233Z,25.80
2022-08-25T16:21:47.166Z,25.90
2022-08-25T16:22:42.168Z,25.95
2022-08-25T16:23:42.139Z,26.10
2022-08-25T16:24:42.187Z,26.12
2022-08-25T16:25:42.145Z,26.17
2022-08-25T16:26:48.054Z,26.29
2022-08-25T16:27:42.146Z,26.39
2022-08-25T16:28:43.916Z,26.45
2022-08-25T16:29:42.097Z,26.52
2022-08-25T16:30:42.066Z,26.50
2022-08-25T16:31:42.183Z,26.55
2022-08-25T16:32:42.056Z,26.55
2022-08-25T16:34:41.989Z,26.72
2022-08-25T16:35:42.067Z,26.75
2022-08-25T16:36:42.004Z,26.87
2022-08-25T16:37:42.748Z,26.91
2022-08-25T16:38:41.998Z,27.00
2022-08-25T16:39:42.012Z,27.00
2022-08-25T16:40:41.980Z,27.04
2022-08-25T16:41:41.953Z,26.97
2022-08-25T16:42:41.970Z,26.82
2022-08-25T16:43:41.927Z,26.65
2022-08-25T16:44:41.986Z,26.60
2022-08-25T16:45:41.874Z,26.73
2022-08-25T16:46:41.954Z,26.82
2022-08-25T16:47:42.809Z,26.85
2022-08-25T16:48:41.894Z,26.81
2022-08-25T16:49:41.881Z,26.72
2022-08-25T16:50:41.860Z,26.69
2022-08-25T16:51:41.827Z,26.65
2022-08-25T16:52:44.234Z,26.76
2022-08-25T16:53:41.787Z,26.73
2022-08-25T16:54:41.812Z,26.69
2022-08-25T16:55:41.831Z,26.65
2022-08-25T16:56:41.837Z,26.69
2022-08-25T16:57:41.772Z,26.82
2022-08-25T16:58:41.740Z,26.91
2022-08-25T16:59:41.775Z,27.09
2022-08-25T17:00:41.808Z,27.12
2022-08-25T17:01:42.015Z,27.04
2022-08-25T17:02:41.767Z,26.92
2022-08-25T17:03:43.801Z,26.88
2022-08-25T17:04:41.663Z,27.02
2022-08-25T17:05:41.663Z,27.10
2022-08-25T17:06:41.642Z,26.94
2022-08-25T17:07:41.680Z,26.89
2022-08-25T17:08:41.667Z,26.97
2022-08-25T17:09:41.644Z,27.03
2022-08-25T17:10:41.634Z,26.99
2022-08-25T17:11:42.361Z,27.09
2022-08-25T17:12:41.563Z,27.14
2022-08-25T17:13:44.399Z,27.24
2022-08-25T17:14:41.609Z,27.31
2022-08-25T17:15:41.629Z,27.36
2022-08-25T17:16:41.593Z,27.47
2022-08-25T17:17:41.560Z,27.57
2022-08-25T17:18:41.506Z,27.77
2022-08-25T17:19:45.458Z,27.93
2022-08-25T17:20:41.545Z,28.06
2022-08-25T17:21:45.147Z,28.25
2022-08-25T17:22:41.522Z,28.44
2022-08-25T17:23:41.444Z,28.66
2022-08-25T17:24:41.469Z,28.86
2022-08-25T17:25:43.164Z,29.06
2022-08-25T17:26:41.505Z,29.09
2022-08-25T17:27:41.432Z,28.92
2022-08-25T17:28:41.443Z,28.70
2022-08-25T17:29:41.474Z,28.31
2022-08-25T17:30:41.374Z,28.15
2022-08-25T17:31:41.375Z,28.44
2022-08-25T17:32:41.641Z,28.77
2022-08-25T17:33:41.387Z,29.00
2022-08-25T17:34:41.332Z,29.18
2022-08-25T17:35:41.334Z,29.26
2022-08-25T17:36:41.303Z,29.14
2022-08-25T17:37:41.373Z,29.21
2022-08-25T17:38:41.353Z,28.93
2022-08-25T17:39:41.313Z,29.04
2022-08-25T17:40:41.461Z,28.90
2022-08-25T17:41:41.252Z,28.76
2022-08-25T17:42:41.283Z,28.77
2022-08-25T17:43:41.262Z,28.70
2022-08-25T17:44:41.259Z,28.88
2022-08-25T17:45:41.212Z,29.02
2022-08-25T17:46:47.213Z,28.95
2022-08-25T17:47:41.228Z,28.66
2022-08-25T17:48:43.825Z,28.96
2022-08-25T17:49:41.176Z,29.24
2022-08-25T17:50:41.227Z,29.42
2022-08-25T17:51:41.158Z,29.60
2022-08-25T17:52:41.178Z,29.31
2022-08-25T17:53:41.199Z,28.93
2022-08-25T17:54:41.088Z,28.54
2022-08-25T17:55:42.328Z,28.17
2022-08-25T17:56:41.159Z,27.85
2022-08-25T17:57:41.079Z,27.74
2022-08-25T17:58:41.100Z,27.62
2022-08-25T17:59:41.778Z,27.49
2022-08-25T18:00:43.948Z,27.32
2022-08-25T18:01:41.203Z,27.10
2022-08-25T18:02:41.040Z,26.92
2022-08-25T18:03:41.051Z,26.73
2022-08-25T18:04:40.975Z,26.65
2022-08-25T18:05:41.011Z,26.50
2022-08-25T18:06:40.973Z,26.35
2022-08-25T18:07:41.020Z,26.21
2022-08-25T18:08:40.982Z,26.02
2022-08-25T18:09:40.962Z,25.82
2022-08-25T18:10:40.928Z,25.65
2022-08-25T18:11:40.935Z,25.55
2022-08-25T18:12:40.900Z,25.47
2022-08-25T18:13:40.911Z,25.45
2022-08-25T18:14:40.939Z,25.45
2022-08-25T18:15:42.400Z,25.51
2022-08-25T18:16:40.888Z,25.46
2022-08-25T18:17:40.909Z,25.43
2022-08-25T18:18:40.863Z,25.40
2022-08-25T18:19:40.882Z,25.36
2022-08-25T18:20:40.880Z,25.32
2022-08-25T18:21:41.660Z,25.24
2022-08-25T18:22:40.818Z,25.18
2022-08-25T18:23:40.817Z,25.15
2022-08-25T18:24:40.794Z,25.15
2022-08-25T18:25:41.927Z,25.14
2022-08-25T18:26:40.745Z,25.10
2022-08-25T18:27:40.790Z,25.08
2022-08-25T18:28:40.742Z,25.00
2022-08-25T18:29:40.685Z,24.93
2022-08-25T18:30:40.685Z,24.91
2022-08-25T18:31:40.870Z,24.87
2022-08-25T18:32:40.743Z,24.85
2022-08-25T18:33:40.710Z,24.84
2022-08-25T18:34:40.701Z,24.88
2022-08-25T18:35:40.654Z,24.90
2022-08-25T18:36:40.695Z,24.85
2022-08-25T18:37:40.639Z,24.85
2022-08-25T18:38:40.904Z,24.85
2022-08-25T18:39:40.642Z,24.85
2022-08-25T18:40:40.581Z,24.84
2022-08-25T18:41:40.609Z,24.84
2022-08-25T18:42:40.621Z,24.85
2022-08-25T18:43:40.571Z,24.84
2022-08-25T18:44:43.727Z,24.80
2022-08-25T18:45:40.558Z,24.77
2022-08-25T18:46:40.562Z,24.85
2022-08-25T18:47:40.526Z,24.90
2022-08-25T18:48:40.520Z,25.03
2022-08-25T18:49:40.505Z,25.20
2022-08-25T18:50:40.498Z,25.33
2022-08-25T18:51:40.472Z,25.40
2022-08-25T18:52:40.512Z,25.38
2022-08-25T18:53:49.720Z,25.25
2022-08-25T18:54:40.454Z,25.23
2022-08-25T18:55:40.450Z,25.17
2022-08-25T18:56:40.450Z,25.03
2022-08-25T18:57:55.086Z,24.96
2022-08-25T18:58:40.428Z,24.91
2022-08-25T18:59:55.061Z,24.88
2022-08-25T19:00:40.373Z,24.87
2022-08-25T19:01:40.428Z,24.87
2022-08-25T19:02:40.536Z,24.80
2022-08-25T19:03:40.338Z,24.61
2022-08-25T19:04:40.367Z,24.47
2022-08-25T19:05:40.338Z,24.37
2022-08-25T19:06:40.291Z,24.32
2022-08-25T19:07:40.414Z,24.27
2022-08-25T19:08:41.906Z,24.24
2022-08-25T19:09:40.309Z,24.22
2022-08-25T19:10:40.310Z,24.25
2022-08-25T19:11:40.250Z,24.27
2022-08-25T19:12:40.285Z,24.27
2022-08-25T19:13:40.253Z,24.25
2022-08-25T19:14:40.221Z,24.22
2022-08-25T19:15:40.258Z,24.18
2022-08-25T19:16:40.184Z,24.09
2022-08-25T19:17:40.203Z,24.06
2022-08-25T19:18:40.175Z,23.98
2022-08-25T19:19:40.154Z,23.90
2022-08-25T19:20:40.204Z,23.79
2022-08-25T19:21:40.155Z,23.79
2022-08-25T19:22:42.001Z,23.72
2022-08-25T19:23:40.128Z,23.66
2022-08-25T19:24:40.115Z,23.60
2022-08-25T19:25:41.715Z,23.55
2022-08-25T19:26:40.099Z,23.54
2022-08-25T19:27:40.090Z,23.51
2022-08-25T19:28:40.064Z,23.58
2022-08-25T19:29:40.036Z,23.60
2022-08-25T19:30:49.925Z,23.53
2022-08-25T19:31:40.044Z,23.42
2022-08-25T19:32:40.015Z,23.38
2022-08-25T19:33:43.941Z,23.33
2022-08-25T19:34:40.010Z,23.23
2022-08-25T19:35:39.979Z,23.20
2022-08-25T19:36:39.973Z,23.19
2022-08-25T19:37:39.957Z,23.15
2022-08-25T19:38:40.016Z,23.01
2022-08-25T19:39:39.917Z,22.98
2022-08-25T19:40:39.985Z,22.92
2022-08-25T19:41:39.920Z,22.83
2022-08-25T19:42:39.885Z,22.67
2022-08-25T19:43:39.861Z,22.57
2022-08-25T19:44:40.179Z,22.51
2022-08-25T19:45:39.857Z,22.51
2022-08-25T19:46:39.981Z,22.45
2022-08-25T19:47:39.806Z,22.36
2022-08-25T19:48:39.872Z,22.33
2022-08-25T19:49:39.804Z,22.33
2022-08-25T19:50:39.837Z,22.35
2022-08-25T19:51:39.838Z,22.35
2022-08-25T19:52:39.786Z,22.27
2022-08-25T19:53:39.795Z,22.28
2022-08-25T19:54:39.748Z,22.25
2022-08-25T19:55:39.735Z,22.18
2022-08-25T19:56:53.695Z,22.17
2022-08-25T19:57:42.929Z,22.21
2022-08-25T19:58:39.721Z,22.22
2022-08-25T19:59:43.140Z,22.22
2022-08-25T20:00:39.688Z,22.24
2022-08-25T20:01:40.372Z,22.20
2022-08-25T20:02:39.767Z,22.22
2022-08-25T20:03:39.697Z,22.24
2022-08-25T20:04:39.651Z,22.22
2022-08-25T20:05:39.656Z,22.18
2022-08-25T20:06:39.630Z,22.10
2022-08-25T20:07:39.579Z,22.02
2022-08-25T20:08:39.647Z,22.03
2022-08-25T20:09:40.952Z,22.05
2022-08-25T20:10:42.089Z,22.07
2022-08-25T20:11:39.552Z,22.10
2022-08-25T20:12:39.561Z,22.14
2022-08-25T20:13:39.512Z,22.09
2022-08-25T20:14:40.048Z,22.06
2022-08-25T20:15:39.631Z,21.92
2022-08-25T20:16:39.503Z,21.83
2022-08-25T20:17:41.717Z,21.72
2022-08-25T20:18:39.505Z,21.69
2022-08-25T20:19:39.436Z,21.74
2022-08-25T20:20:39.494Z,21.77
2022-08-25T20:21:40.093Z,21.58
2022-08-25T20:22:39.514Z,21.53
2022-08-25T20:23:39.419Z,21.46
2022-08-25T20:24:39.436Z,21.47
2022-08-25T20:25:39.387Z,21.42
2022-08-25T20:26:39.413Z,21.32
2022-08-25T20:27:39.434Z,21.27
2022-08-25T20:28:39.430Z,21.28
2022-08-25T20:29:40.157Z,21.22
2022-08-25T20:30:39.416Z,21.13
2022-08-25T20:31:39.306Z,21.04
2022-08-25T20:32:39.415Z,21.04
2022-08-25T20:33:39.304Z,21.01
2022-08-25T20:34:39.351Z,20.98
2022-08-25T20:35:39.330Z,20.95
2022-08-25T20:36:41.595Z,20.92
2022-08-25T20:37:39.298Z,20.94
2022-08-25T20:38:39.304Z,20.91
2022-08-25T20:39:39.290Z,20.91
2022-08-25T20:40:39.239Z,20.92
2022-08-25T20:41:39.222Z,20.97
2022-08-25T20:42:39.250Z,21.03
2022-08-25T20:43:39.157Z,21.01
2022-08-25T20:44:42.087Z,21.06
2022-08-25T20:45:39.258Z,21.10
2022-08-25T20:46:39.144Z,21.16
2022-08-25T20:47:39.126Z,21.21
2022-08-25T20:48:39.162Z,21.24
2022-08-25T20:49:39.131Z,21.22
2022-08-25T20:50:39.327Z,21.14
2022-08-25T20:51:39.112Z,21.14
2022-08-25T20:52:39.256Z,21.12
2022-08-25T20:53:39.061Z,21.09
2022-08-25T20:54:39.076Z,21.13
2022-08-25T20:55:42.377Z,21.10
2022-08-25T20:56:39.074Z,21.03
2022-08-25T20:57:39.054Z,21.01
2022-08-25T20:58:39.064Z,20.97
2022-08-25T20:59:39.020Z,20.92
2022-08-25T21:00:38.974Z,20.88
2022-08-25T21:01:39.819Z,20.76
2022-08-25T21:02:39.135Z,20.72
2022-08-25T21:03:38.979Z,20.67
2022-08-25T21:04:39.268Z,20.64
2022-08-25T21:05:38.997Z,20.61
2022-08-25T21:06:38.907Z,20.62
2022-08-25T21:07:38.894Z,20.64
2022-08-25T21:08:38.942Z,20.64
2022-08-25T21:09:40.074Z,20.67
2022-08-25T21:10:38.884Z,20.72
2022-08-25T21:11:38.885Z,20.69
2022-08-25T21:12:38.869Z,20.66
2022-08-25T21:13:38.832Z,20.64
2022-08-25T21:14:38.818Z,20.55
2022-08-25T21:15:38.814Z,20.52
2022-08-25T21:16:38.866Z,20.52
2022-08-25T21:17:38.825Z,20.47
2022-08-25T21:18:38.801Z,20.38
2022-08-25T21:19:38.820Z,20.39
2022-08-25T21:20:38.826Z,20.41
2022-08-25T21:21:38.738Z,20.39
2022-08-25T21:22:38.773Z,20.39
2022-08-25T21:23:39.592Z,20.35
2022-08-25T21:24:38.728Z,20.32
2022-08-25T21:25:38.729Z,20.28
2022-08-25T21:26:48.989Z,20.26
2022-08-25T21:27:38.705Z,20.24
2022-08-25T21:28:38.691Z,20.21
2022-08-25T21:29:38.703Z,20.21
2022-08-25T21:30:38.683Z,20.23
2022-08-25T21:31:38.614Z,20.24
2022-08-25T21:32:38.649Z,20.26
2022-08-25T21:33:38.602Z,20.31
2022-08-25T21:34:38.566Z,20.35
2022-08-25T21:35:38.619Z,20.38
2022-08-25T21:36:38.585Z,20.42
2022-08-25T21:37:39.354Z,20.47
2022-08-25T21:38:39.901Z,20.43
2022-08-25T21:39:38.541Z,20.39
2022-08-25T21:40:38.552Z,20.39
2022-08-25T21:41:38.589Z,20.35
2022-08-25T21:42:38.518Z,20.33
2022-08-25T21:43:38.500Z,20.32
2022-08-25T21:44:38.509Z,20.28
2022-08-25T21:45:40.410Z,20.26
2022-08-25T21:46:38.508Z,20.29
2022-08-25T21:47:38.429Z,20.32
2022-08-25T21:48:38.464Z,20.31
2022-08-25T21:49:38.438Z,20.28
2022-08-25T21:50:38.479Z,20.29
2022-08-25T21:51:40.744Z,20.31
2022-08-25T21:52:38.378Z,20.31
2022-08-25T21:53:38.379Z,20.32
2022-08-25T21:54:38.415Z,20.31
2022-08-25T21:55:38.361Z,20.31
2022-08-25T21:56:38.582Z,20.32
2022-08-25T21:57:38.331Z,20.38
2022-08-25T21:58:38.361Z,20.38
2022-08-25T21:59:38.383Z,20.39
2022-08-25T22:00:38.304Z,20.42
2022-08-25T22:01:38.321Z,20.47
2022-08-25T22:02:38.345Z,20.43
2022-08-25T22:03:38.277Z,20.41
2022-08-25T22:04:38.270Z,20.39
2022-08-25T22:05:38.310Z,20.38
2022-08-25T22:06:38.244Z,20.41
2022-08-25T22:07:40.453Z,20.41
2022-08-25T22:08:38.259Z,20.38
2022-08-25T22:09:38.193Z,20.39
2022-08-25T22:10:38.241Z,20.41
2022-08-25T22:11:38.226Z,20.39
2022-08-25T22:12:38.157Z,20.38
2022-08-25T22:13:43.244Z,20.31
2022-08-25T22:14:38.162Z,20.31
2022-08-25T22:15:38.802Z,20.24
2022-08-25T22:16:38.176Z,20.20
2022-08-25T22:17:38.092Z,20.21
2022-08-25T22:18:38.094Z,20.28
2022-08-25T22:19:38.072Z,20.29
2022-08-25T22:20:39.263Z,20.36
2022-08-25T22:21:38.043Z,20.43
2022-08-25T22:22:38.077Z,20.43
2022-08-25T22:23:39.978Z,20.48
2022-08-25T22:24:38.030Z,20.52
2022-08-25T22:25:45.931Z,20.51
2022-08-25T22:29:36.387Z,20.50
2022-08-25T22:30:37.372Z,20.51
2022-08-25T22:31:37.326Z,20.43
2022-08-25T22:32:37.326Z,20.35
2022-08-25T22:33:37.442Z,20.33
2022-08-25T22:34:40.222Z,20.35
2022-08-25T22:35:37.316Z,20.33